sensor_id;sensor_type;location;lat;lon;timestamp;temperature;humidity
69359;HTU21D;56520;49.066;8.660;2023-05-07T00:01:17;12.32;89.85
69359;HTU21D;56520;49.066;8.660;2023-05-07T00:03:42;12.29;89.78
69359;HTU21D;56520;49.066;8.660;2023-05-07T00:06:07;12.26;89.95
69359;HTU21D;56520;49.066;8.660;2023-05-07T00:08:33;12.25;90.37
69359;HTU21D;56520;49.066;8.660;2023-05-07T00:10:58;12.20;90.38
69359;HTU21D;56520;49.066;8.660;2023-05-07T00:13:23;12.18;90.63
69359;HTU21D;56520;49.066;8.660;2023-05-07T00:15:49;12.16;90.67
69359;HTU21D;56520;49.066;8.660;2023-05-07T00:18:14;12.13;90.79
69359;HTU21D;56520;49.066;8.660;2023-05-07T00:20:40;12.11;90.69
69359;HTU21D;56520;49.066;8.660;2023-05-07T00:23:05;12.10;91.00
69359;HTU21D;56520;49.066;8.660;2023-05-07T00:25:31;12.11;90.95
69359;HTU21D;56520;49.066;8.660;2023-05-07T00:27:56;12.13;91.07
69359;HTU21D;56520;49.066;8.660;2023-05-07T00:30:27;12.12;90.90
69359;HTU21D;56520;49.066;8.660;2023-05-07T00:32:53;12.14;90.87
69359;HTU21D;56520;49.066;8.660;2023-05-07T00:35:18;12.14;90.75
69359;HTU21D;56520;49.066;8.660;2023-05-07T00:37:44;12.15;90.89
69359;HTU21D;56520;49.066;8.660;2023-05-07T00:40:09;12.13;90.79
69359;HTU21D;56520;49.066;8.660;2023-05-07T00:42:35;12.07;90.73
69359;HTU21D;56520;49.066;8.660;2023-05-07T00:45:01;12.04;90.79
69359;HTU21D;56520;49.066;8.660;2023-05-07T00:47:28;12.00;90.76
69359;HTU21D;56520;49.066;8.660;2023-05-07T00:49:53;11.97;91.10
69359;HTU21D;56520;49.066;8.660;2023-05-07T00:52:20;11.93;91.26
69359;HTU21D;56520;49.066;8.660;2023-05-07T00:54:47;11.92;91.51
69359;HTU21D;56520;49.066;8.660;2023-05-07T00:57:13;11.89;91.60
69359;HTU21D;56520;49.066;8.660;2023-05-07T00:59:38;11.86;91.50
69359;HTU21D;56520;49.066;8.660;2023-05-07T01:02:05;11.81;91.60
69359;HTU21D;56520;49.066;8.660;2023-05-07T01:04:31;11.79;91.57
69359;HTU21D;56520;49.066;8.660;2023-05-07T01:06:57;11.76;91.53
69359;HTU21D;56520;49.066;8.660;2023-05-07T01:09:24;11.73;91.44
69359;HTU21D;56520;49.066;8.660;2023-05-07T01:11:50;11.72;91.43
69359;HTU21D;56520;49.066;8.660;2023-05-07T01:14:17;11.72;91.40
69359;HTU21D;56520;49.066;8.660;2023-05-07T01:16:42;11.72;91.43
69359;HTU21D;56520;49.066;8.660;2023-05-07T01:19:08;11.73;91.43
69359;HTU21D;56520;49.066;8.660;2023-05-07T01:21:36;11.74;91.37
69359;HTU21D;56520;49.066;8.660;2023-05-07T01:24:02;11.76;91.31
69359;HTU21D;56520;49.066;8.660;2023-05-07T01:26:28;11.77;91.21
69359;HTU21D;56520;49.066;8.660;2023-05-07T01:28:54;11.81;91.24
69359;HTU21D;56520;49.066;8.660;2023-05-07T01:31:20;11.82;91.18
69359;HTU21D;56520;49.066;8.660;2023-05-07T01:33:45;11.82;91.14
69359;HTU21D;56520;49.066;8.660;2023-05-07T01:36:14;11.79;91.12
69359;HTU21D;56520;49.066;8.660;2023-05-07T01:38:41;11.78;91.18
69359;HTU21D;56520;49.066;8.660;2023-05-07T01:41:07;11.76;91.15
69359;HTU21D;56520;49.066;8.660;2023-05-07T01:43:33;11.72;91.18
69359;HTU21D;56520;49.066;8.660;2023-05-07T01:45:59;11.69;91.28
69359;HTU21D;56520;49.066;8.660;2023-05-07T01:48:26;11.67;91.44
69359;HTU21D;56520;49.066;8.660;2023-05-07T01:50:52;11.64;91.49
69359;HTU21D;56520;49.066;8.660;2023-05-07T01:53:18;11.62;91.56
69359;HTU21D;56520;49.066;8.660;2023-05-07T01:55:43;11.61;91.73
69359;HTU21D;56520;49.066;8.660;2023-05-07T01:58:08;11.59;91.68
69359;HTU21D;56520;49.066;8.660;2023-05-07T02:00:34;11.62;91.63
69359;HTU21D;56520;49.066;8.660;2023-05-07T02:02:59;11.63;91.43
69359;HTU21D;56520;49.066;8.660;2023-05-07T02:05:25;11.63;91.33
69359;HTU21D;56520;49.066;8.660;2023-05-07T02:07:50;11.64;91.27
69359;HTU21D;56520;49.066;8.660;2023-05-07T02:10:15;11.64;91.18
69359;HTU21D;56520;49.066;8.660;2023-05-07T02:12:41;11.62;91.25
69359;HTU21D;56520;49.066;8.660;2023-05-07T02:15:10;11.59;91.34
69359;HTU21D;56520;49.066;8.660;2023-05-07T02:17:39;11.56;91.46
69359;HTU21D;56520;49.066;8.660;2023-05-07T02:20:22;11.53;91.60
69359;HTU21D;56520;49.066;8.660;2023-05-07T02:22:48;11.49;91.65
69359;HTU21D;56520;49.066;8.660;2023-05-07T02:25:13;11.47;91.78
69359;HTU21D;56520;49.066;8.660;2023-05-07T02:27:41;11.44;91.78
69359;HTU21D;56520;49.066;8.660;2023-05-07T02:30:07;11.41;91.80
69359;HTU21D;56520;49.066;8.660;2023-05-07T02:32:32;11.41;91.89
69359;HTU21D;56520;49.066;8.660;2023-05-07T02:34:58;11.40;91.92
69359;HTU21D;56520;49.066;8.660;2023-05-07T02:37:23;11.41;91.84
69359;HTU21D;56520;49.066;8.660;2023-05-07T02:39:49;11.39;91.95
69359;HTU21D;56520;49.066;8.660;2023-05-07T02:42:14;11.37;91.98
69359;HTU21D;56520;49.066;8.660;2023-05-07T02:44:39;11.34;92.01
69359;HTU21D;56520;49.066;8.660;2023-05-07T02:47:05;11.31;92.08
69359;HTU21D;56520;49.066;8.660;2023-05-07T02:49:34;11.27;92.11
69359;HTU21D;56520;49.066;8.660;2023-05-07T02:52:00;11.24;92.16
69359;HTU21D;56520;49.066;8.660;2023-05-07T02:54:25;11.20;92.28
69359;HTU21D;56520;49.066;8.660;2023-05-07T02:56:51;11.17;92.35
69359;HTU21D;56520;49.066;8.660;2023-05-07T02:59:16;11.13;92.39
69359;HTU21D;56520;49.066;8.660;2023-05-07T03:01:41;11.09;92.48
69359;HTU21D;56520;49.066;8.660;2023-05-07T03:04:09;11.08;92.55
69359;HTU21D;56520;49.066;8.660;2023-05-07T03:06:35;11.04;92.59
69359;HTU21D;56520;49.066;8.660;2023-05-07T03:09:01;11.02;92.64
69359;HTU21D;56520;49.066;8.660;2023-05-07T03:11:26;10.99;92.63
69359;HTU21D;56520;49.066;8.660;2023-05-07T03:13:52;10.97;92.74
69359;HTU21D;56520;49.066;8.660;2023-05-07T03:16:17;10.94;92.73
69359;HTU21D;56520;49.066;8.660;2023-05-07T03:18:42;10.92;92.78
69359;HTU21D;56520;49.066;8.660;2023-05-07T03:21:08;10.89;92.85
69359;HTU21D;56520;49.066;8.660;2023-05-07T03:23:33;10.87;92.93
69359;HTU21D;56520;49.066;8.660;2023-05-07T03:25:59;10.84;92.98
69359;HTU21D;56520;49.066;8.660;2023-05-07T03:28:24;10.84;93.04
69359;HTU21D;56520;49.066;8.660;2023-05-07T03:30:50;10.81;93.05
69359;HTU21D;56520;49.066;8.660;2023-05-07T03:33:15;10.79;93.10
69359;HTU21D;56520;49.066;8.660;2023-05-07T03:35:41;10.78;93.18
69359;HTU21D;56520;49.066;8.660;2023-05-07T03:38:09;10.74;93.27
69359;HTU21D;56520;49.066;8.660;2023-05-07T03:40:35;10.72;93.30
69359;HTU21D;56520;49.066;8.660;2023-05-07T03:43:00;10.71;93.30
69359;HTU21D;56520;49.066;8.660;2023-05-07T03:45:26;10.70;93.33
69359;HTU21D;56520;49.066;8.660;2023-05-07T03:47:51;10.71;93.33
69359;HTU21D;56520;49.066;8.660;2023-05-07T03:50:17;10.71;93.35
69359;HTU21D;56520;49.066;8.660;2023-05-07T03:52:42;10.71;93.32
69359;HTU21D;56520;49.066;8.660;2023-05-07T03:55:08;10.70;93.19
69359;HTU21D;56520;49.066;8.660;2023-05-07T03:57:33;10.68;93.12
69359;HTU21D;56520;49.066;8.660;2023-05-07T03:59:59;10.69;93.07
69359;HTU21D;56520;49.066;8.660;2023-05-07T04:02:24;10.69;93.04
69359;HTU21D;56520;49.066;8.660;2023-05-07T04:04:49;10.69;93.05
69359;HTU21D;56520;49.066;8.660;2023-05-07T04:07:15;10.69;93.08
69359;HTU21D;56520;49.066;8.660;2023-05-07T04:09:41;10.71;93.08
69359;HTU21D;56520;49.066;8.660;2023-05-07T04:12:06;10.74;93.08
69359;HTU21D;56520;49.066;8.660;2023-05-07T04:14:31;10.79;93.07
69359;HTU21D;56520;49.066;8.660;2023-05-07T04:17:00;10.84;93.14
69359;HTU21D;56520;49.066;8.660;2023-05-07T04:19:26;10.88;93.06
69359;HTU21D;56520;49.066;8.660;2023-05-07T04:21:51;10.90;92.90
69359;HTU21D;56520;49.066;8.660;2023-05-07T04:24:16;10.97;92.83
69359;HTU21D;56520;49.066;8.660;2023-05-07T04:26:42;11.04;92.80
69359;HTU21D;56520;49.066;8.660;2023-05-07T04:29:07;11.12;92.66
69359;HTU21D;56520;49.066;8.660;2023-05-07T04:31:33;11.16;92.56
69359;HTU21D;56520;49.066;8.660;2023-05-07T04:33:58;11.23;92.53
69359;HTU21D;56520;49.066;8.660;2023-05-07T04:36:23;11.30;92.49
69359;HTU21D;56520;49.066;8.660;2023-05-07T04:38:53;11.37;92.34
69359;HTU21D;56520;49.066;8.660;2023-05-07T04:41:18;11.44;92.21
69359;HTU21D;56520;49.066;8.660;2023-05-07T04:43:43;11.51;92.17
69359;HTU21D;56520;49.066;8.660;2023-05-07T04:46:09;11.60;92.13
69359;HTU21D;56520;49.066;8.660;2023-05-07T04:48:34;11.74;92.04
69359;HTU21D;56520;49.066;8.660;2023-05-07T04:51:00;11.90;92.01
69359;HTU21D;56520;49.066;8.660;2023-05-07T04:53:25;12.01;91.85
69359;HTU21D;56520;49.066;8.660;2023-05-07T04:55:57;12.13;91.60
69359;HTU21D;56520;49.066;8.660;2023-05-07T04:58:23;12.22;91.34
69359;HTU21D;56520;49.066;8.660;2023-05-07T05:00:49;12.22;91.01
69359;HTU21D;56520;49.066;8.660;2023-05-07T05:03:14;12.25;90.87
69359;HTU21D;56520;49.066;8.660;2023-05-07T05:05:40;12.27;90.79
69359;HTU21D;56520;49.066;8.660;2023-05-07T05:08:05;12.29;90.52
69359;HTU21D;56520;49.066;8.660;2023-05-07T05:10:31;12.29;90.46
69359;HTU21D;56520;49.066;8.660;2023-05-07T05:12:56;12.31;90.36
69359;HTU21D;56520;49.066;8.660;2023-05-07T05:15:22;12.34;90.27
69359;HTU21D;56520;49.066;8.660;2023-05-07T05:17:47;12.37;90.07
69359;HTU21D;56520;49.066;8.660;2023-05-07T05:20:12;12.42;89.99
69359;HTU21D;56520;49.066;8.660;2023-05-07T05:22:38;12.47;89.80
69359;HTU21D;56520;49.066;8.660;2023-05-07T05:25:04;12.52;89.66
69359;HTU21D;56520;49.066;8.660;2023-05-07T05:27:30;12.59;89.47
69359;HTU21D;56520;49.066;8.660;2023-05-07T05:29:55;12.67;89.34
69359;HTU21D;56520;49.066;8.660;2023-05-07T05:32:21;12.72;89.14
69359;HTU21D;56520;49.066;8.660;2023-05-07T05:34:46;12.79;88.92
69359;HTU21D;56520;49.066;8.660;2023-05-07T05:37:11;12.90;88.72
69359;HTU21D;56520;49.066;8.660;2023-05-07T05:39:37;13.02;88.52
69359;HTU21D;56520;49.066;8.660;2023-05-07T05:42:02;13.14;87.78
69359;HTU21D;56520;49.066;8.660;2023-05-07T05:44:28;13.29;87.58
69359;HTU21D;56520;49.066;8.660;2023-05-07T05:46:53;13.45;86.64
69359;HTU21D;56520;49.066;8.660;2023-05-07T05:49:24;13.62;86.54
69359;HTU21D;56520;49.066;8.660;2023-05-07T05:51:50;13.78;85.90
69359;HTU21D;56520;49.066;8.660;2023-05-07T05:54:15;13.96;85.84
69359;HTU21D;56520;49.066;8.660;2023-05-07T05:56:41;14.13;85.29
69359;HTU21D;56520;49.066;8.660;2023-05-07T05:59:07;14.32;85.35
69359;HTU21D;56520;49.066;8.660;2023-05-07T06:01:32;14.51;85.01
69359;HTU21D;56520;49.066;8.660;2023-05-07T06:03:58;14.69;84.73
69359;HTU21D;56520;49.066;8.660;2023-05-07T06:06:23;14.81;83.36
69359;HTU21D;56520;49.066;8.660;2023-05-07T06:08:49;14.91;83.60
69359;HTU21D;56520;49.066;8.660;2023-05-07T06:11:14;14.99;83.39
69359;HTU21D;56520;49.066;8.660;2023-05-07T06:13:40;15.10;83.01
69359;HTU21D;56520;49.066;8.660;2023-05-07T06:16:06;15.17;81.69
69359;HTU21D;56520;49.066;8.660;2023-05-07T06:18:31;15.26;81.80
69359;HTU21D;56520;49.066;8.660;2023-05-07T06:20:57;15.34;82.04
69359;HTU21D;56520;49.066;8.660;2023-05-07T06:23:22;15.42;81.69
69359;HTU21D;56520;49.066;8.660;2023-05-07T06:25:51;15.57;81.02
69359;HTU21D;56520;49.066;8.660;2023-05-07T06:28:16;15.70;80.72
69359;HTU21D;56520;49.066;8.660;2023-05-07T06:30:42;15.78;80.52
69359;HTU21D;56520;49.066;8.660;2023-05-07T06:33:08;15.90;80.24
69359;HTU21D;56520;49.066;8.660;2023-05-07T06:35:33;16.06;79.97
69359;HTU21D;56520;49.066;8.660;2023-05-07T06:38:00;16.19;76.99
69359;HTU21D;56520;49.066;8.660;2023-05-07T06:40:25;16.36;78.13
69359;HTU21D;56520;49.066;8.660;2023-05-07T06:42:51;16.51;76.99
69359;HTU21D;56520;49.066;8.660;2023-05-07T06:45:16;16.63;75.28
69359;HTU21D;56520;49.066;8.660;2023-05-07T06:47:41;16.74;76.79
69359;HTU21D;56520;49.066;8.660;2023-05-07T06:50:07;16.85;76.68
69359;HTU21D;56520;49.066;8.660;2023-05-07T06:52:33;16.96;75.90
69359;HTU21D;56520;49.066;8.660;2023-05-07T06:54:59;17.13;74.79
69359;HTU21D;56520;49.066;8.660;2023-05-07T06:57:25;17.29;75.36
69359;HTU21D;56520;49.066;8.660;2023-05-07T06:59:50;17.45;75.33
69359;HTU21D;56520;49.066;8.660;2023-05-07T07:02:19;17.63;75.14
69359;HTU21D;56520;49.066;8.660;2023-05-07T07:04:50;17.75;74.95
69359;HTU21D;56520;49.066;8.660;2023-05-07T07:07:15;17.80;73.17
69359;HTU21D;56520;49.066;8.660;2023-05-07T07:09:41;17.80;72.22
69359;HTU21D;56520;49.066;8.660;2023-05-07T07:12:06;17.78;71.16
69359;HTU21D;56520;49.066;8.660;2023-05-07T07:14:32;17.74;71.11
69359;HTU21D;56520;49.066;8.660;2023-05-07T07:16:57;17.74;67.38
69359;HTU21D;56520;49.066;8.660;2023-05-07T07:19:23;17.82;70.06
69359;HTU21D;56520;49.066;8.660;2023-05-07T07:21:49;17.92;70.72
69359;HTU21D;56520;49.066;8.660;2023-05-07T07:24:15;18.03;67.64
69359;HTU21D;56520;49.066;8.660;2023-05-07T07:26:46;18.13;66.98
69359;HTU21D;56520;49.066;8.660;2023-05-07T07:29:11;18.29;68.07
69359;HTU21D;56520;49.066;8.660;2023-05-07T07:31:37;18.39;68.42
69359;HTU21D;56520;49.066;8.660;2023-05-07T07:34:02;18.48;68.80
69359;HTU21D;56520;49.066;8.660;2023-05-07T07:36:28;18.54;66.78
69359;HTU21D;56520;49.066;8.660;2023-05-07T07:38:53;18.72;67.54
69359;HTU21D;56520;49.066;8.660;2023-05-07T07:41:19;19.12;67.00
69359;HTU21D;56520;49.066;8.660;2023-05-07T07:43:44;19.55;65.25
69359;HTU21D;56520;49.066;8.660;2023-05-07T07:46:11;19.91;63.33
69359;HTU21D;56520;49.066;8.660;2023-05-07T07:48:37;20.01;62.76
69359;HTU21D;56520;49.066;8.660;2023-05-07T07:51:03;19.98;57.39
69359;HTU21D;56520;49.066;8.660;2023-05-07T07:53:28;19.90;59.56
69359;HTU21D;56520;49.066;8.660;2023-05-07T07:55:53;19.82;61.69
69359;HTU21D;56520;49.066;8.660;2023-05-07T07:58:19;19.82;62.27
69359;HTU21D;56520;49.066;8.660;2023-05-07T08:00:44;19.95;62.72
69359;HTU21D;56520;49.066;8.660;2023-05-07T08:03:10;20.07;59.67
69359;HTU21D;56520;49.066;8.660;2023-05-07T08:05:35;20.30;61.48
69359;HTU21D;56520;49.066;8.660;2023-05-07T08:08:01;20.53;59.62
69359;HTU21D;56520;49.066;8.660;2023-05-07T08:10:27;20.78;59.95
69359;HTU21D;56520;49.066;8.660;2023-05-07T08:12:52;20.92;59.45
69359;HTU21D;56520;49.066;8.660;2023-05-07T08:15:18;20.92;59.16
69359;HTU21D;56520;49.066;8.660;2023-05-07T08:17:43;21.04;59.64
69359;HTU21D;56520;49.066;8.660;2023-05-07T08:20:09;21.17;59.43
69359;HTU21D;56520;49.066;8.660;2023-05-07T08:22:35;21.30;57.93
69359;HTU21D;56520;49.066;8.660;2023-05-07T08:25:01;21.37;57.47
69359;HTU21D;56520;49.066;8.660;2023-05-07T08:27:26;21.44;57.31
69359;HTU21D;56520;49.066;8.660;2023-05-07T08:29:52;21.54;57.32
69359;HTU21D;56520;49.066;8.660;2023-05-07T08:32:17;21.75;57.06
69359;HTU21D;56520;49.066;8.660;2023-05-07T08:34:43;21.81;57.00
69359;HTU21D;56520;49.066;8.660;2023-05-07T08:37:08;21.91;58.06
69359;HTU21D;56520;49.066;8.660;2023-05-07T08:39:34;22.09;57.43
69359;HTU21D;56520;49.066;8.660;2023-05-07T08:42:00;22.23;57.22
69359;HTU21D;56520;49.066;8.660;2023-05-07T08:44:28;22.28;57.60
69359;HTU21D;56520;49.066;8.660;2023-05-07T08:46:56;22.49;55.38
69359;HTU21D;56520;49.066;8.660;2023-05-07T08:49:25;22.66;56.63
69359;HTU21D;56520;49.066;8.660;2023-05-07T08:51:51;22.80;55.81
69359;HTU21D;56520;49.066;8.660;2023-05-07T08:54:18;22.84;55.00
69359;HTU21D;56520;49.066;8.660;2023-05-07T08:56:45;22.84;55.91
69359;HTU21D;56520;49.066;8.660;2023-05-07T08:59:10;22.85;55.14
69359;HTU21D;56520;49.066;8.660;2023-05-07T09:01:35;22.99;55.23
69359;HTU21D;56520;49.066;8.660;2023-05-07T09:04:01;23.29;54.65
69359;HTU21D;56520;49.066;8.660;2023-05-07T09:06:27;23.73;52.88
69359;HTU21D;56520;49.066;8.660;2023-05-07T09:08:53;24.01;52.52
69359;HTU21D;56520;49.066;8.660;2023-05-07T09:11:23;24.23;51.37
69359;HTU21D;56520;49.066;8.660;2023-05-07T09:13:53;24.45;52.62
69359;HTU21D;56520;49.066;8.660;2023-05-07T09:16:20;24.87;52.94
69359;HTU21D;56520;49.066;8.660;2023-05-07T09:18:45;25.31;52.28
69359;HTU21D;56520;49.066;8.660;2023-05-07T09:21:16;25.89;51.79
69359;HTU21D;56520;49.066;8.660;2023-05-07T09:23:42;26.33;51.29
69359;HTU21D;56520;49.066;8.660;2023-05-07T09:26:07;26.76;48.54
69359;HTU21D;56520;49.066;8.660;2023-05-07T09:28:43;27.09;48.12
69359;HTU21D;56520;49.066;8.660;2023-05-07T09:31:10;26.90;48.02
69359;HTU21D;56520;49.066;8.660;2023-05-07T09:33:36;26.64;47.74
69359;HTU21D;56520;49.066;8.660;2023-05-07T09:36:03;26.82;48.12
69359;HTU21D;56520;49.066;8.660;2023-05-07T09:38:30;26.75;47.70
69359;HTU21D;56520;49.066;8.660;2023-05-07T09:41:04;26.50;47.71
69359;HTU21D;56520;49.066;8.660;2023-05-07T09:43:36;26.18;48.15
69359;HTU21D;56520;49.066;8.660;2023-05-07T09:46:05;26.42;48.49
69359;HTU21D;56520;49.066;8.660;2023-05-07T09:48:32;26.48;45.83
69359;HTU21D;56520;49.066;8.660;2023-05-07T09:51:02;26.39;47.09
69359;HTU21D;56520;49.066;8.660;2023-05-07T09:53:31;26.26;48.38
69359;HTU21D;56520;49.066;8.660;2023-05-07T09:55:59;26.25;48.95
69359;HTU21D;56520;49.066;8.660;2023-05-07T09:58:25;26.09;48.37
69359;HTU21D;56520;49.066;8.660;2023-05-07T10:00:51;25.80;48.44
69359;HTU21D;56520;49.066;8.660;2023-05-07T10:03:19;25.92;47.75
69359;HTU21D;56520;49.066;8.660;2023-05-07T10:05:44;25.72;45.85
69359;HTU21D;56520;49.066;8.660;2023-05-07T10:08:12;25.48;47.66
69359;HTU21D;56520;49.066;8.660;2023-05-07T10:10:38;25.81;47.25
69359;HTU21D;56520;49.066;8.660;2023-05-07T10:13:03;26.02;46.50
69359;HTU21D;56520;49.066;8.660;2023-05-07T10:15:35;26.23;45.89
69359;HTU21D;56520;49.066;8.660;2023-05-07T10:18:00;26.22;44.96
69359;HTU21D;56520;49.066;8.660;2023-05-07T10:20:27;26.18;45.44
69359;HTU21D;56520;49.066;8.660;2023-05-07T10:22:54;26.34;45.72
69359;HTU21D;56520;49.066;8.660;2023-05-07T10:25:23;26.58;46.27
69359;HTU21D;56520;49.066;8.660;2023-05-07T10:27:52;26.81;43.09
69359;HTU21D;56520;49.066;8.660;2023-05-07T10:33:07;26.77;44.22
69359;HTU21D;56520;49.066;8.660;2023-05-07T10:35:41;26.87;45.48
69359;HTU21D;56520;49.066;8.660;2023-05-07T10:38:08;27.15;43.98
69359;HTU21D;56520;49.066;8.660;2023-05-07T10:40:33;27.25;44.32
69359;HTU21D;56520;49.066;8.660;2023-05-07T10:43:01;27.64;45.00
69359;HTU21D;56520;49.066;8.660;2023-05-07T10:45:28;27.70;43.44
69359;HTU21D;56520;49.066;8.660;2023-05-07T10:48:12;27.72;42.74
69359;HTU21D;56520;49.066;8.660;2023-05-07T10:50:42;27.72;43.63
69359;HTU21D;56520;49.066;8.660;2023-05-07T10:55:44;28.00;41.87
69359;HTU21D;56520;49.066;8.660;2023-05-07T10:58:22;27.57;41.90
69359;HTU21D;56520;49.066;8.660;2023-05-07T11:00:49;27.01;43.20
69359;HTU21D;56520;49.066;8.660;2023-05-07T11:03:14;26.82;43.12
69359;HTU21D;56520;49.066;8.660;2023-05-07T11:05:41;27.14;45.09
69359;HTU21D;56520;49.066;8.660;2023-05-07T11:08:08;27.60;44.54
69359;HTU21D;56520;49.066;8.660;2023-05-07T11:10:55;28.28;42.81
69359;HTU21D;56520;49.066;8.660;2023-05-07T11:13:47;28.60;39.99
69359;HTU21D;56520;49.066;8.660;2023-05-07T11:16:23;28.41;40.52
69359;HTU21D;56520;49.066;8.660;2023-05-07T11:18:55;28.34;41.79
69359;HTU21D;56520;49.066;8.660;2023-05-07T11:21:48;27.79;43.63
69359;HTU21D;56520;49.066;8.660;2023-05-07T11:24:14;27.50;45.55
69359;HTU21D;56520;49.066;8.660;2023-05-07T11:29:13;27.24;44.06
69359;HTU21D;56520;49.066;8.660;2023-05-07T11:31:38;26.87;43.74
69359;HTU21D;56520;49.066;8.660;2023-05-07T11:34:05;26.45;44.37
69359;HTU21D;56520;49.066;8.660;2023-05-07T11:36:32;26.15;45.67
69359;HTU21D;56520;49.066;8.660;2023-05-07T11:38:58;26.01;46.26
69359;HTU21D;56520;49.066;8.660;2023-05-07T11:41:33;26.26;45.76
69359;HTU21D;56520;49.066;8.660;2023-05-07T11:43:59;26.45;45.03
69359;HTU21D;56520;49.066;8.660;2023-05-07T11:46:27;26.48;45.45
69359;HTU21D;56520;49.066;8.660;2023-05-07T11:48:53;26.31;45.14
69359;HTU21D;56520;49.066;8.660;2023-05-07T11:51:24;26.28;45.59
69359;HTU21D;56520;49.066;8.660;2023-05-07T11:53:51;26.45;44.71
69359;HTU21D;56520;49.066;8.660;2023-05-07T11:56:17;26.22;44.87
69359;HTU21D;56520;49.066;8.660;2023-05-07T11:58:44;26.24;46.51
69359;HTU21D;56520;49.066;8.660;2023-05-07T12:01:12;26.17;44.54
69359;HTU21D;56520;49.066;8.660;2023-05-07T12:03:40;26.02;45.80
69359;HTU21D;56520;49.066;8.660;2023-05-07T12:06:11;26.31;45.21
69359;HTU21D;56520;49.066;8.660;2023-05-07T12:08:38;26.60;45.30
69359;HTU21D;56520;49.066;8.660;2023-05-07T12:11:07;26.90;45.71
69359;HTU21D;56520;49.066;8.660;2023-05-07T12:13:33;27.24;46.61
69359;HTU21D;56520;49.066;8.660;2023-05-07T12:15:59;27.45;45.12
69359;HTU21D;56520;49.066;8.660;2023-05-07T12:18:25;27.65;44.54
69359;HTU21D;56520;49.066;8.660;2023-05-07T12:20:50;27.41;42.88
69359;HTU21D;56520;49.066;8.660;2023-05-07T12:23:17;27.05;44.51
69359;HTU21D;56520;49.066;8.660;2023-05-07T12:25:43;26.79;45.46
69359;HTU21D;56520;49.066;8.660;2023-05-07T12:28:14;26.56;45.20
69359;HTU21D;56520;49.066;8.660;2023-05-07T12:30:42;26.38;45.01
69359;HTU21D;56520;49.066;8.660;2023-05-07T12:33:07;26.36;45.49
69359;HTU21D;56520;49.066;8.660;2023-05-07T12:35:40;26.51;46.09
69359;HTU21D;56520;49.066;8.660;2023-05-07T12:38:13;26.69;45.00
69359;HTU21D;56520;49.066;8.660;2023-05-07T12:40:47;26.90;46.16
69359;HTU21D;56520;49.066;8.660;2023-05-07T12:43:26;27.29;44.35
69359;HTU21D;56520;49.066;8.660;2023-05-07T12:45:58;27.49;44.49
69359;HTU21D;56520;49.066;8.660;2023-05-07T12:48:25;27.72;44.29
69359;HTU21D;56520;49.066;8.660;2023-05-07T12:50:58;27.90;44.92
69359;HTU21D;56520;49.066;8.660;2023-05-07T12:53:26;27.90;43.84
69359;HTU21D;56520;49.066;8.660;2023-05-07T12:55:53;27.64;43.03
69359;HTU21D;56520;49.066;8.660;2023-05-07T13:00:52;26.80;45.96
69359;HTU21D;56520;49.066;8.660;2023-05-07T13:03:26;26.24;46.83
69359;HTU21D;56520;49.066;8.660;2023-05-07T13:05:52;25.79;48.55
69359;HTU21D;56520;49.066;8.660;2023-05-07T13:08:46;25.43;47.86
69359;HTU21D;56520;49.066;8.660;2023-05-07T13:11:13;25.03;49.73
69359;HTU21D;56520;49.066;8.660;2023-05-07T13:13:39;24.72;50.88
69359;HTU21D;56520;49.066;8.660;2023-05-07T13:16:07;24.43;51.19
69359;HTU21D;56520;49.066;8.660;2023-05-07T13:18:33;24.12;50.74
69359;HTU21D;56520;49.066;8.660;2023-05-07T13:20:59;23.81;51.22
69359;HTU21D;56520;49.066;8.660;2023-05-07T13:23:26;23.47;52.56
69359;HTU21D;56520;49.066;8.660;2023-05-07T13:25:51;23.03;54.43
69359;HTU21D;56520;49.066;8.660;2023-05-07T13:28:21;22.41;60.48
69359;HTU21D;56520;49.066;8.660;2023-05-07T13:30:47;21.72;60.35
69359;HTU21D;56520;49.066;8.660;2023-05-07T13:33:12;20.50;66.96
69359;HTU21D;56520;49.066;8.660;2023-05-07T13:35:38;19.22;72.37
69359;HTU21D;56520;49.066;8.660;2023-05-07T13:38:04;18.14;73.50
69359;HTU21D;56520;49.066;8.660;2023-05-07T13:40:30;17.29;77.14
69359;HTU21D;56520;49.066;8.660;2023-05-07T13:42:57;16.63;77.15
69359;HTU21D;56520;49.066;8.660;2023-05-07T13:45:23;15.74;77.68
69359;HTU21D;56520;49.066;8.660;2023-05-07T13:47:51;14.97;79.77
69359;HTU21D;56520;49.066;8.660;2023-05-07T13:50:17;14.38;83.03
69359;HTU21D;56520;49.066;8.660;2023-05-07T13:52:44;14.01;84.05
69359;HTU21D;56520;49.066;8.660;2023-05-07T13:55:20;13.65;85.88
69359;HTU21D;56520;49.066;8.660;2023-05-07T13:57:46;13.43;86.98
69359;HTU21D;56520;49.066;8.660;2023-05-07T14:00:12;13.26;87.77
69359;HTU21D;56520;49.066;8.660;2023-05-07T14:02:38;13.16;87.22
69359;HTU21D;56520;49.066;8.660;2023-05-07T14:05:04;13.15;86.08
69359;HTU21D;56520;49.066;8.660;2023-05-07T14:07:30;13.09;85.62
69359;HTU21D;56520;49.066;8.660;2023-05-07T14:09:56;13.22;88.25
69359;HTU21D;56520;49.066;8.660;2023-05-07T14:12:22;13.33;89.42
69359;HTU21D;56520;49.066;8.660;2023-05-07T14:14:47;13.50;89.50
69359;HTU21D;56520;49.066;8.660;2023-05-07T14:17:15;13.65;88.37
69359;HTU21D;56520;49.066;8.660;2023-05-07T14:19:41;13.76;87.73
69359;HTU21D;56520;49.066;8.660;2023-05-07T14:22:06;13.92;93.46
69359;HTU21D;56520;49.066;8.660;2023-05-07T14:24:32;13.86;90.95
69359;HTU21D;56520;49.066;8.660;2023-05-07T14:26:57;13.84;91.51
69359;HTU21D;56520;49.066;8.660;2023-05-07T14:29:22;13.84;90.21
69359;HTU21D;56520;49.066;8.660;2023-05-07T14:31:48;13.94;89.83
69359;HTU21D;56520;49.066;8.660;2023-05-07T14:34:13;14.06;91.37
69359;HTU21D;56520;49.066;8.660;2023-05-07T14:36:39;14.13;92.84
69359;HTU21D;56520;49.066;8.660;2023-05-07T14:39:04;14.17;91.04
69359;HTU21D;56520;49.066;8.660;2023-05-07T14:41:30;14.26;90.95
69359;HTU21D;56520;49.066;8.660;2023-05-07T14:43:56;14.35;90.24
69359;HTU21D;56520;49.066;8.660;2023-05-07T14:46:24;14.49;93.53
69359;HTU21D;56520;49.066;8.660;2023-05-07T14:48:49;14.50;93.75
69359;HTU21D;56520;49.066;8.660;2023-05-07T14:51:15;14.55;92.75
69359;HTU21D;56520;49.066;8.660;2023-05-07T14:53:41;14.62;91.44
69359;HTU21D;56520;49.066;8.660;2023-05-07T14:56:07;14.73;91.27
69359;HTU21D;56520;49.066;8.660;2023-05-07T14:58:33;14.87;90.61
69359;HTU21D;56520;49.066;8.660;2023-05-07T15:00:59;14.98;91.12
69359;HTU21D;56520;49.066;8.660;2023-05-07T15:03:24;14.95;92.36
69359;HTU21D;56520;49.066;8.660;2023-05-07T15:05:50;14.83;92.74
69359;HTU21D;56520;49.066;8.660;2023-05-07T15:08:17;14.77;92.56
69359;HTU21D;56520;49.066;8.660;2023-05-07T15:10:42;14.80;92.55
69359;HTU21D;56520;49.066;8.660;2023-05-07T15:13:09;14.83;92.78
69359;HTU21D;56520;49.066;8.660;2023-05-07T15:15:34;14.79;92.82
69359;HTU21D;56520;49.066;8.660;2023-05-07T15:18:00;14.73;92.82
69359;HTU21D;56520;49.066;8.660;2023-05-07T15:20:26;14.72;92.82
69359;HTU21D;56520;49.066;8.660;2023-05-07T15:22:52;14.66;92.77